createdAt,value
2019-03-20T00:02:18.241Z,99.90
2019-03-20T00:04:49.870Z,99.90
2019-03-20T00:07:15.934Z,99.90
2019-03-20T00:09:44.002Z,99.90
2019-03-20T00:12:11.955Z,99.90
2019-03-20T00:14:39.841Z,99.90
2019-03-20T00:17:07.774Z,99.90
2019-03-20T00:19:35.710Z,99.90
2019-03-20T00:22:03.573Z,99.90
2019-03-20T00:24:31.502Z,99.90
2019-03-20T00:26:59.387Z,99.90
2019-03-20T00:29:27.371Z,99.90
2019-03-20T00:31:55.245Z,99.90
2019-03-20T00:34:23.127Z,99.90
2019-03-20T00:36:51.001Z,99.90
2019-03-20T00:39:19.002Z,99.90
2019-03-20T00:41:46.927Z,99.90
2019-03-20T00:44:14.783Z,99.90
2019-03-20T00:46:42.683Z,99.90
2019-03-20T00:49:10.615Z,99.90
2019-03-20T00:51:38.524Z,99.90
2019-03-20T00:54:06.468Z,99.90
2019-03-20T00:56:34.355Z,99.90
2019-03-20T00:59:02.311Z,99.90
2019-03-20T01:01:30.294Z,99.90
2019-03-20T01:03:58.184Z,99.90
2019-03-20T01:06:26.062Z,99.90
2019-03-20T01:08:53.943Z,99.90
2019-03-20T01:11:21.825Z,99.90
2019-03-20T01:13:49.772Z,99.90
2019-03-20T01:16:17.710Z,99.90
2019-03-20T01:18:45.576Z,99.90
2019-03-20T01:21:13.573Z,99.90
2019-03-20T01:23:41.425Z,99.90
2019-03-20T01:26:09.342Z,99.90
2019-03-20T01:28:37.296Z,99.90
2019-03-20T01:31:05.508Z,99.90
2019-03-20T01:33:33.380Z,99.90
2019-03-20T01:36:01.337Z,99.90
2019-03-20T01:38:29.622Z,99.90
2019-03-20T01:40:57.986Z,99.90
2019-03-20T01:43:25.945Z,99.90
2019-03-20T01:45:53.873Z,99.90
2019-03-20T01:48:22.230Z,99.90
2019-03-20T01:50:50.217Z,99.90
2019-03-20T01:53:18.080Z,99.90
2019-03-20T01:55:46.059Z,99.90
2019-03-20T01:58:14.076Z,99.90
2019-03-20T02:00:42.119Z,99.90
2019-03-20T02:03:10.012Z,99.90
2019-03-20T02:05:37.902Z,99.90
2019-03-20T02:08:05.764Z,99.90
2019-03-20T02:10:33.727Z,99.90
2019-03-20T02:13:01.598Z,99.90
2019-03-20T02:15:38.177Z,99.90
2019-03-20T02:17:59.211Z,99.90
2019-03-20T02:20:27.158Z,99.90
2019-03-20T02:22:55.155Z,99.90
2019-03-20T02:25:23.137Z,99.90
2019-03-20T02:27:51.012Z,99.90
2019-03-20T02:30:18.995Z,99.90
2019-03-20T02:32:46.986Z,99.90
2019-03-20T02:35:14.910Z,99.90
2019-03-20T02:37:43.067Z,99.90
2019-03-20T02:40:10.988Z,99.90
2019-03-20T02:42:38.887Z,99.90
2019-03-20T02:45:06.771Z,99.90
2019-03-20T02:47:34.607Z,99.90
2019-03-20T02:50:02.472Z,99.90
2019-03-20T02:52:30.445Z,99.90
2019-03-20T02:54:58.584Z,99.90
2019-03-20T02:57:26.637Z,99.90
2019-03-20T02:59:54.559Z,99.90
2019-03-20T03:02:22.450Z,99.90
2019-03-20T03:04:50.385Z,99.90
2019-03-20T03:07:18.345Z,99.90
2019-03-20T03:09:46.279Z,99.90
2019-03-20T03:12:14.196Z,99.90
2019-03-20T03:14:42.165Z,99.90
2019-03-20T03:17:10.152Z,99.90
2019-03-20T03:19:38.083Z,99.90
2019-03-20T03:22:06.029Z,99.90
2019-03-20T03:24:33.901Z,99.90
2019-03-20T03:27:01.800Z,99.90
2019-03-20T03:29:29.765Z,99.90
2019-03-20T03:31:57.623Z,99.90
2019-03-20T03:34:25.501Z,99.90
2019-03-20T03:36:53.415Z,99.90
2019-03-20T03:39:21.313Z,99.90
2019-03-20T03:41:49.377Z,99.90
2019-03-20T03:44:17.324Z,99.90
2019-03-20T03:46:45.371Z,99.90
2019-03-20T03:49:13.327Z,99.90
2019-03-20T03:51:41.294Z,99.90
2019-03-20T03:54:09.177Z,99.90
2019-03-20T03:56:37.108Z,99.90
2019-03-20T03:59:05.092Z,99.90
2019-03-20T04:01:32.995Z,99.90
2019-03-20T04:04:01.152Z,99.90
2019-03-20T04:06:35.585Z,99.90
2019-03-20T04:08:58.754Z,99.90
2019-03-20T04:11:26.657Z,99.90
2019-03-20T04:13:54.537Z,99.90
2019-03-20T04:16:22.539Z,99.90
2019-03-20T04:18:50.777Z,99.90
2019-03-20T04:21:18.779Z,99.90
2019-03-20T04:23:46.780Z,99.90
2019-03-20T04:26:14.720Z,99.90
2019-03-20T04:28:42.632Z,99.90
2019-03-20T04:31:10.629Z,99.90
2019-03-20T04:33:38.572Z,99.90
2019-03-20T04:36:06.529Z,99.90
2019-03-20T04:38:34.396Z,99.90
2019-03-20T04:41:01.742Z,99.90
2019-03-20T04:43:29.678Z,99.90
2019-03-20T04:45:57.576Z,99.90
2019-03-20T04:48:25.413Z,99.90
2019-03-20T04:50:53.312Z,99.90
2019-03-20T04:53:21.202Z,99.90
2019-03-20T04:55:49.072Z,99.90
2019-03-20T04:58:17.035Z,99.90
2019-03-20T05:00:44.971Z,99.90
2019-03-20T05:03:12.860Z,99.90
2019-03-20T05:05:40.725Z,99.90
2019-03-20T05:08:08.062Z,99.90
2019-03-20T05:10:35.964Z,99.90
2019-03-20T05:13:03.991Z,99.90
2019-03-20T05:15:31.868Z,99.90
2019-03-20T05:17:59.780Z,99.90
2019-03-20T05:20:27.725Z,99.90
2019-03-20T05:22:55.701Z,99.90
2019-03-20T05:25:23.680Z,99.90
2019-03-20T05:27:51.658Z,99.90
2019-03-20T05:30:19.538Z,99.90
2019-03-20T05:32:47.413Z,99.90
2019-03-20T05:35:15.260Z,99.90
2019-03-20T05:37:43.170Z,99.90
2019-03-20T05:40:11.052Z,99.90
2019-03-20T05:42:38.942Z,99.90
2019-03-20T05:45:06.859Z,99.90
2019-03-20T05:47:34.764Z,99.90
2019-03-20T05:50:02.618Z,99.90
2019-03-20T05:52:30.516Z,99.90
2019-03-20T05:54:58.391Z,99.90
2019-03-20T05:57:25.792Z,99.90
2019-03-20T05:59:53.752Z,99.90
2019-03-20T06:02:21.668Z,99.90
2019-03-20T06:04:49.515Z,99.90
2019-03-20T06:07:21.621Z,99.90
2019-03-20T06:09:46.543Z,99.90
2019-03-20T06:12:14.665Z,99.90
2019-03-20T06:14:42.725Z,99.90
2019-03-20T06:17:10.640Z,99.90
2019-03-20T06:19:38.485Z,99.90
2019-03-20T06:22:06.348Z,99.90
2019-03-20T06:24:34.209Z,99.90
2019-03-20T06:27:02.218Z,99.90
2019-03-20T06:29:30.185Z,99.90
2019-03-20T06:31:58.136Z,99.90
2019-03-20T06:34:26.011Z,99.90
2019-03-20T06:36:53.915Z,99.90
2019-03-20T06:39:21.788Z,99.90
2019-03-20T06:41:49.787Z,99.90
2019-03-20T06:44:17.669Z,99.90
2019-03-20T06:46:45.581Z,99.90
2019-03-20T06:49:13.597Z,99.90
2019-03-20T06:51:41.455Z,99.90
2019-03-20T06:54:09.384Z,99.90
2019-03-20T06:56:37.264Z,99.90
2019-03-20T06:59:05.187Z,99.90
2019-03-20T07:01:33.085Z,99.90
2019-03-20T07:04:01.068Z,99.90
2019-03-20T07:06:29.017Z,99.90
2019-03-20T07:08:56.997Z,99.90
2019-03-20T07:11:24.896Z,99.90
2019-03-20T07:13:52.881Z,99.90
2019-03-20T07:16:20.828Z,99.90
2019-03-20T07:18:48.779Z,99.90
2019-03-20T07:21:18.655Z,99.90
2019-03-20T07:23:46.245Z,99.90
2019-03-20T07:26:14.114Z,99.90
2019-03-20T07:28:42.028Z,99.90
2019-03-20T07:31:15.245Z,99.90
2019-03-20T07:33:39.498Z,99.90
2019-03-20T07:36:07.456Z,99.90
2019-03-20T07:38:35.386Z,99.90
2019-03-20T07:41:03.278Z,99.90
2019-03-20T07:43:31.175Z,99.90
2019-03-20T07:45:59.025Z,99.90
2019-03-20T07:48:26.856Z,99.90
2019-03-20T07:50:54.774Z,99.90
2019-03-20T07:53:22.701Z,99.90
2019-03-20T07:55:50.646Z,99.90
2019-03-20T07:58:18.511Z,99.90
2019-03-20T08:00:46.381Z,99.90
2019-03-20T08:03:14.265Z,99.90
2019-03-20T08:05:42.128Z,99.90
2019-03-20T08:08:10.027Z,99.90
2019-03-20T08:10:37.882Z,99.90
2019-03-20T08:13:05.786Z,99.90
2019-03-20T08:15:33.649Z,99.90
2019-03-20T08:18:01.525Z,99.90
2019-03-20T08:20:29.375Z,99.90
2019-03-20T08:22:57.236Z,99.90
2019-03-20T08:25:25.122Z,99.90
2019-03-20T08:27:53.069Z,99.90
2019-03-20T08:30:21.028Z,99.90
2019-03-20T08:32:48.888Z,99.90
2019-03-20T08:35:16.887Z,99.90
2019-03-20T08:37:44.819Z,99.90
2019-03-20T08:40:12.702Z,99.90
2019-03-20T08:42:40.574Z,99.90
2019-03-20T08:45:08.554Z,99.90
2019-03-20T08:47:36.488Z,99.90
2019-03-20T08:50:04.396Z,99.90
2019-03-20T08:52:32.364Z,99.90
2019-03-20T08:55:00.423Z,99.90
2019-03-20T08:57:28.288Z,99.90
2019-03-20T08:59:56.166Z,99.90
2019-03-20T09:02:24.029Z,99.90
2019-03-20T09:04:52.055Z,99.90
2019-03-20T09:07:19.993Z,99.90
2019-03-20T09:09:47.901Z,99.90
2019-03-20T09:12:15.836Z,99.90
2019-03-20T09:14:43.892Z,99.90
2019-03-20T09:17:12.619Z,99.90
2019-03-20T09:19:40.727Z,99.90
2019-03-20T09:22:08.597Z,99.90
2019-03-20T09:24:36.483Z,99.90
2019-03-20T09:27:04.320Z,99.90
2019-03-20T09:29:36.253Z,99.90
2019-03-20T09:32:01.857Z,99.90
2019-03-20T09:34:29.841Z,99.90
2019-03-20T09:36:57.712Z,99.90
2019-03-20T09:39:25.611Z,99.90
2019-03-20T09:41:53.473Z,99.90
2019-03-20T09:44:21.363Z,99.90
2019-03-20T09:46:49.217Z,99.90
2019-03-20T09:49:17.100Z,99.50
2019-03-20T09:51:44.965Z,96.80
2019-03-20T09:54:12.858Z,96.70
2019-03-20T09:56:40.794Z,94.60
2019-03-20T09:59:08.632Z,91.30
2019-03-20T10:01:36.504Z,90.60
2019-03-20T10:04:04.461Z,87.90
2019-03-20T10:06:32.369Z,88.40
2019-03-20T10:09:01.988Z,84.00
2019-03-20T10:11:30.055Z,85.10
2019-03-20T10:13:57.955Z,77.00
2019-03-20T10:16:25.836Z,70.20
2019-03-20T10:18:53.699Z,72.30
2019-03-20T10:21:21.587Z,71.80
2019-03-20T10:23:49.434Z,68.30
2019-03-20T10:26:17.296Z,74.60
2019-03-20T10:28:45.187Z,70.50
2019-03-20T10:31:13.054Z,73.30
2019-03-20T10:33:40.956Z,72.20
2019-03-20T10:36:08.811Z,72.20
2019-03-20T10:38:36.764Z,70.20
2019-03-20T10:41:04.649Z,67.40
2019-03-20T10:43:32.567Z,69.10
2019-03-20T10:46:00.504Z,67.40
2019-03-20T10:48:28.492Z,65.00
2019-03-20T10:50:56.424Z,64.20
2019-03-20T10:53:24.347Z,63.70
2019-03-20T10:55:52.200Z,58.30
2019-03-20T10:58:20.055Z,57.70
2019-03-20T11:00:48.003Z,55.40
2019-03-20T11:03:15.970Z,57.00
2019-03-20T11:05:43.978Z,53.30
2019-03-20T11:08:13.054Z,56.50
2019-03-20T11:10:41.064Z,56.90
2019-03-20T11:13:09.028Z,58.50
2019-03-20T11:15:37.001Z,58.10
2019-03-20T11:18:04.936Z,53.50
2019-03-20T11:20:32.845Z,57.40
2019-03-20T11:23:00.695Z,56.40
2019-03-20T11:25:28.709Z,51.80
2019-03-20T11:27:56.627Z,57.00
2019-03-20T11:30:24.546Z,55.00
2019-03-20T11:32:52.451Z,51.90
2019-03-20T11:35:20.360Z,55.30
2019-03-20T11:37:48.240Z,55.70
2019-03-20T11:40:16.127Z,54.60
2019-03-20T11:42:43.974Z,53.80
2019-03-20T11:45:11.868Z,50.10
2019-03-20T11:47:39.729Z,51.80
2019-03-20T11:50:07.626Z,51.10
2019-03-20T11:52:35.490Z,51.60
2019-03-20T11:55:03.395Z,52.60
2019-03-20T11:57:31.244Z,54.00
2019-03-20T11:59:59.115Z,52.90
2019-03-20T12:02:28.313Z,49.60
2019-03-20T12:04:56.651Z,51.40
2019-03-20T12:07:24.604Z,52.90
2019-03-20T12:09:52.600Z,53.10
2019-03-20T12:12:20.571Z,52.90
2019-03-20T12:14:48.470Z,52.30
2019-03-20T12:17:16.423Z,49.40
2019-03-20T12:19:45.068Z,50.60
2019-03-20T12:22:13.175Z,49.90
2019-03-20T12:24:41.076Z,49.20
2019-03-20T12:27:14.956Z,49.10
2019-03-20T12:29:38.621Z,48.80
2019-03-20T12:32:06.502Z,48.30
2019-03-20T12:34:34.417Z,48.60
2019-03-20T12:37:02.380Z,48.00
2019-03-20T12:39:30.423Z,49.10
2019-03-20T12:41:58.407Z,49.70
2019-03-20T12:44:26.355Z,48.60
2019-03-20T12:46:54.239Z,49.70
2019-03-20T12:49:22.144Z,44.40
2019-03-20T12:51:50.024Z,46.30
2019-03-20T12:54:17.904Z,44.80
2019-03-20T12:56:45.859Z,48.10
2019-03-20T12:59:13.734Z,48.10
2019-03-20T13:01:41.629Z,47.00
2019-03-20T13:04:09.471Z,48.20
2019-03-20T13:06:39.253Z,46.40
2019-03-20T13:09:07.174Z,44.90
2019-03-20T13:11:35.188Z,46.10
2019-03-20T13:14:03.296Z,46.80
2019-03-20T13:16:31.305Z,45.40
2019-03-20T13:18:59.400Z,47.50
2019-03-20T13:21:27.522Z,45.20
2019-03-20T13:23:55.518Z,45.40
2019-03-20T13:26:25.319Z,46.30
2019-03-20T13:28:53.283Z,46.90
2019-03-20T13:31:21.268Z,46.30
2019-03-20T13:33:49.494Z,45.80
2019-03-20T13:36:19.040Z,49.50
2019-03-20T13:38:47.158Z,48.30
2019-03-20T13:41:15.209Z,47.70
2019-03-20T13:43:43.147Z,48.40
2019-03-20T13:46:12.113Z,48.00
2019-03-20T13:48:40.178Z,45.70
2019-03-20T13:51:08.235Z,46.70
2019-03-20T13:53:36.275Z,44.40
2019-03-20T13:56:04.381Z,46.00
2019-03-20T13:58:32.293Z,46.10
2019-03-20T14:01:00.188Z,45.20
2019-03-20T14:03:28.158Z,45.20
2019-03-20T14:05:57.898Z,47.20
2019-03-20T14:08:25.793Z,47.10
2019-03-20T14:10:53.621Z,46.30
2019-03-20T14:13:21.478Z,45.40
2019-03-20T14:15:49.324Z,46.50
2019-03-20T14:18:17.211Z,45.40
2019-03-20T14:20:45.178Z,46.30
2019-03-20T14:23:13.119Z,44.20
2019-03-20T14:25:40.943Z,44.60
2019-03-20T14:28:08.812Z,43.80
2019-03-20T14:30:36.828Z,43.10
2019-03-20T14:33:04.682Z,43.90
2019-03-20T14:35:32.638Z,43.60
2019-03-20T14:38:00.515Z,42.10
2019-03-20T14:40:35.505Z,39.70
2019-03-20T14:42:58.380Z,42.60
2019-03-20T14:45:26.390Z,40.90
2019-03-20T14:47:54.240Z,41.10
2019-03-20T14:50:22.109Z,40.00
2019-03-20T14:52:49.979Z,41.90
2019-03-20T14:55:17.875Z,43.00
2019-03-20T14:57:45.734Z,40.80
2019-03-20T15:00:13.590Z,40.50
2019-03-20T15:02:41.479Z,41.10
2019-03-20T15:05:09.355Z,40.90
2019-03-20T15:07:37.259Z,38.90
2019-03-20T15:10:05.138Z,37.70
2019-03-20T15:12:32.987Z,39.30
2019-03-20T15:15:00.866Z,39.50
2019-03-20T15:17:28.707Z,33.90
2019-03-20T15:19:56.584Z,35.10
2019-03-20T15:22:24.578Z,35.20
2019-03-20T15:24:52.515Z,35.20
2019-03-20T15:27:20.455Z,34.60
2019-03-20T15:29:48.319Z,34.40
2019-03-20T15:32:16.213Z,33.80
2019-03-20T15:34:44.084Z,33.10
2019-03-20T15:37:12.054Z,31.90
2019-03-20T15:39:39.920Z,32.90
2019-03-20T15:42:07.802Z,32.30
2019-03-20T15:44:35.731Z,31.60
2019-03-20T15:47:03.714Z,31.30
2019-03-20T15:49:31.624Z,32.90
2019-03-20T15:51:59.513Z,32.20
2019-03-20T15:54:27.411Z,31.40
2019-03-20T15:56:56.147Z,32.10
2019-03-20T15:59:24.144Z,32.70
2019-03-20T16:01:52.089Z,33.40
2019-03-20T16:04:19.996Z,32.70
2019-03-20T16:06:47.942Z,32.40
2019-03-20T16:09:15.919Z,32.90
2019-03-20T16:11:43.795Z,33.40
2019-03-20T16:14:11.716Z,33.70
2019-03-20T16:16:39.577Z,32.10
2019-03-20T16:19:07.450Z,30.90
2019-03-20T16:21:35.411Z,29.20
2019-03-20T16:24:03.359Z,29.40
2019-03-20T16:26:31.195Z,28.80
2019-03-20T16:28:59.081Z,28.40
2019-03-20T16:31:26.931Z,28.00
2019-03-20T16:33:54.838Z,28.80
2019-03-20T16:36:22.808Z,29.80
2019-03-20T16:38:50.688Z,30.90
2019-03-20T16:41:18.663Z,32.30
2019-03-20T16:43:46.577Z,33.10
2019-03-20T16:46:14.450Z,35.70
2019-03-20T16:48:42.343Z,38.50
2019-03-20T16:51:10.361Z,41.50
2019-03-20T16:53:38.341Z,42.20
2019-03-20T16:56:06.225Z,44.30
2019-03-20T16:58:34.110Z,45.30
2019-03-20T17:01:20.991Z,48.30
2019-03-20T17:03:48.935Z,49.90
2019-03-20T17:06:16.813Z,51.50
2019-03-20T17:08:44.682Z,55.10
2019-03-20T17:11:12.543Z,56.50
2019-03-20T17:13:40.421Z,61.30
2019-03-20T17:16:08.268Z,62.80
2019-03-20T17:18:36.194Z,63.80
2019-03-20T17:21:04.109Z,67.20
2019-03-20T17:23:32.015Z,72.00
2019-03-20T17:25:59.884Z,75.00
2019-03-20T17:28:27.768Z,78.90
2019-03-20T17:30:55.620Z,82.10
2019-03-20T17:33:23.475Z,85.90
2019-03-20T17:35:51.334Z,90.00
2019-03-20T17:38:19.454Z,92.10
2019-03-20T17:40:47.383Z,93.50
2019-03-20T17:43:15.267Z,95.10
2019-03-20T17:45:43.145Z,96.70
2019-03-20T17:48:11.045Z,98.50
2019-03-20T17:50:38.988Z,99.00
2019-03-20T17:53:06.863Z,99.90
2019-03-20T17:55:34.739Z,99.90
2019-03-20T17:58:02.685Z,99.90
2019-03-20T18:00:38.961Z,99.90
2019-03-20T18:03:06.915Z,99.90
2019-03-20T18:05:34.857Z,99.90
2019-03-20T18:08:02.718Z,99.90
2019-03-20T18:10:30.647Z,99.90
2019-03-20T18:12:58.555Z,99.90
2019-03-20T18:15:26.394Z,99.90
2019-03-20T18:17:54.290Z,99.90
2019-03-20T18:20:22.159Z,99.90
2019-03-20T18:22:50.119Z,99.90
2019-03-20T18:25:17.971Z,99.90
2019-03-20T18:27:45.876Z,99.90
2019-03-20T18:30:13.741Z,99.90
2019-03-20T18:32:41.612Z,99.90
2019-03-20T18:35:09.501Z,99.90
2019-03-20T18:37:37.346Z,99.90
2019-03-20T18:40:05.304Z,99.90
2019-03-20T18:42:33.235Z,99.90
2019-03-20T18:45:02.955Z,99.90
2019-03-20T18:47:30.936Z,99.90
2019-03-20T18:49:58.935Z,99.90
2019-03-20T18:52:26.898Z,99.90
2019-03-20T18:54:54.936Z,99.90
2019-03-20T18:57:22.780Z,99.90
2019-03-20T18:59:50.691Z,99.90
2019-03-20T19:02:18.653Z,99.90
2019-03-20T19:04:46.577Z,99.90
2019-03-20T19:07:14.514Z,99.90
2019-03-20T19:09:42.443Z,99.90
2019-03-20T19:12:10.430Z,99.90
2019-03-20T19:14:38.380Z,99.90
2019-03-20T19:17:06.412Z,99.90
2019-03-20T19:19:34.513Z,99.90
2019-03-20T19:22:02.392Z,99.90
2019-03-20T19:24:30.254Z,99.90
2019-03-20T19:26:58.168Z,99.90
2019-03-20T19:29:26.282Z,99.90
2019-03-20T19:31:55.775Z,99.90
2019-03-20T19:34:23.987Z,99.90
2019-03-20T19:36:51.980Z,99.90
2019-03-20T19:39:19.918Z,99.90
2019-03-20T19:41:47.866Z,99.90
2019-03-20T19:44:15.827Z,99.90
2019-03-20T19:46:43.720Z,99.90
2019-03-20T19:49:11.716Z,99.90
2019-03-20T19:51:39.681Z,99.90
2019-03-20T19:54:07.659Z,99.90
2019-03-20T19:56:35.559Z,99.90
2019-03-20T19:59:03.536Z,99.90
2019-03-20T20:01:31.504Z,99.90
2019-03-20T20:03:59.413Z,99.90
2019-03-20T20:06:27.370Z,99.90
2019-03-20T20:08:55.350Z,99.90
2019-03-20T20:11:23.378Z,99.90
2019-03-20T20:13:53.805Z,99.90
2019-03-20T20:16:21.855Z,99.90
2019-03-20T20:18:49.959Z,99.90
2019-03-20T20:21:17.905Z,99.90
2019-03-20T20:23:45.886Z,99.90
2019-03-20T20:26:13.944Z,99.90
2019-03-20T20:28:42.004Z,99.90
2019-03-20T20:31:10.068Z,99.90
2019-03-20T20:33:38.311Z,99.90
2019-03-20T20:36:06.385Z,99.90
2019-03-20T20:38:34.377Z,99.90
2019-03-20T20:41:02.386Z,99.90
2019-03-20T20:43:30.386Z,99.90
2019-03-20T20:45:58.289Z,99.90
2019-03-20T20:48:26.290Z,99.90
2019-03-20T20:50:54.264Z,99.90
2019-03-20T20:53:22.339Z,99.90
2019-03-20T20:55:59.241Z,99.90
2019-03-20T20:58:27.284Z,99.90
2019-03-20T21:00:55.352Z,99.90
2019-03-20T21:03:23.329Z,99.90
2019-03-20T21:05:51.397Z,99.90
2019-03-20T21:08:19.431Z,99.90
2019-03-20T21:10:47.521Z,99.90
2019-03-20T21:13:15.509Z,99.90
2019-03-20T21:15:43.455Z,99.90
2019-03-20T21:18:12.331Z,99.90
2019-03-20T21:20:40.298Z,99.90
2019-03-20T21:23:08.268Z,99.90
2019-03-20T21:25:36.231Z,99.90
2019-03-20T21:28:04.248Z,99.90
2019-03-20T21:30:32.224Z,99.90
2019-03-20T21:33:00.170Z,99.90
2019-03-20T21:35:28.048Z,99.90
2019-03-20T21:37:55.970Z,99.90
2019-03-20T21:40:23.922Z,99.90
2019-03-20T21:42:51.886Z,99.90
2019-03-20T21:45:19.926Z,99.90
2019-03-20T21:47:47.821Z,99.90
2019-03-20T21:50:15.771Z,99.90
2019-03-20T21:52:43.731Z,99.90
2019-03-20T21:55:11.937Z,99.90
2019-03-20T21:57:39.844Z,99.90
2019-03-20T22:00:07.809Z,99.90
2019-03-20T22:02:36.139Z,99.90
2019-03-20T22:05:04.008Z,99.90
2019-03-20T22:07:31.880Z,99.90
2019-03-20T22:09:59.805Z,99.90
2019-03-20T22:12:27.686Z,99.90
2019-03-20T22:14:55.660Z,99.90
2019-03-20T22:17:23.674Z,99.90
2019-03-20T22:19:51.618Z,99.90
2019-03-20T22:22:19.663Z,99.90
2019-03-20T22:24:47.688Z,99.90
2019-03-20T22:27:15.698Z,99.90
2019-03-20T22:29:43.778Z,99.90
2019-03-20T22:32:11.797Z,99.90
2019-03-20T22:34:39.681Z,99.90
2019-03-20T22:37:07.632Z,99.90
2019-03-20T22:39:35.506Z,99.90
2019-03-20T22:42:03.413Z,99.90
2019-03-20T22:44:31.294Z,99.90
2019-03-20T22:46:59.276Z,99.90
2019-03-20T22:49:27.186Z,99.90
2019-03-20T22:51:55.185Z,99.90
2019-03-20T22:54:23.154Z,99.90
2019-03-20T22:56:51.139Z,99.90
2019-03-20T22:59:19.193Z,99.90
2019-03-20T23:01:47.390Z,99.90
2019-03-20T23:04:15.340Z,99.90
2019-03-20T23:06:43.313Z,99.90
2019-03-20T23:09:11.515Z,99.90
2019-03-20T23:11:39.476Z,99.90
2019-03-20T23:14:07.499Z,99.90
2019-03-20T23:16:35.500Z,99.90
2019-03-20T23:19:03.383Z,99.90
2019-03-20T23:21:31.359Z,99.90
2019-03-20T23:23:59.423Z,99.90
2019-03-20T23:26:27.471Z,99.90
2019-03-20T23:28:55.476Z,99.90
2019-03-20T23:31:23.507Z,99.90
2019-03-20T23:33:51.662Z,99.90
2019-03-20T23:36:19.518Z,99.90
2019-03-20T23:38:47.513Z,99.90
2019-03-20T23:41:15.419Z,99.90
2019-03-20T23:43:52.379Z,99.90
2019-03-20T23:46:13.003Z,99.90
2019-03-20T23:48:40.899Z,99.90
2019-03-20T23:51:08.928Z,99.90
2019-03-20T23:53:36.872Z,99.90
2019-03-20T23:56:04.885Z,99.90
2019-03-20T23:58:32.856Z,99.90
